createdAt,value
2023-01-11T00:00:57.921Z,2.88
2023-01-11T00:03:46.022Z,1.95
2023-01-11T00:06:36.682Z,1.98
2023-01-11T00:09:24.586Z,1.92
2023-01-11T00:12:14.414Z,1.90
2023-01-11T00:15:02.176Z,2.00
2023-01-11T00:17:49.824Z,3.00
2023-01-11T00:20:41.819Z,3.63
2023-01-11T00:23:35.873Z,4.00
2023-01-11T00:26:23.775Z,4.10
2023-01-11T00:29:11.364Z,5.72
2023-01-11T00:31:59.026Z,4.72
2023-01-11T00:34:49.389Z,4.00
2023-01-11T00:37:37.265Z,3.40
2023-01-11T00:40:26.526Z,4.28
2023-01-11T00:43:32.592Z,3.60
2023-01-11T00:46:38.984Z,4.72
2023-01-11T00:49:27.142Z,3.83
2023-01-11T00:52:14.896Z,2.53
2023-01-11T00:55:02.856Z,1.27
2023-01-11T00:57:53.193Z,1.10
2023-01-11T01:00:40.916Z,1.15
2023-01-11T01:03:28.519Z,2.08
2023-01-11T01:06:16.233Z,1.52
2023-01-11T01:09:04.064Z,1.77
2023-01-11T01:11:51.875Z,1.70
2023-01-11T01:14:39.592Z,1.35
2023-01-11T01:17:27.655Z,1.00
2023-01-11T01:20:15.835Z,0.95
2023-01-11T01:23:03.747Z,2.55
2023-01-11T01:25:53.618Z,2.17
2023-01-11T01:28:41.293Z,1.80
2023-01-11T01:31:29.031Z,25.30
2023-01-11T01:34:17.106Z,41.47
2023-01-11T01:37:08.806Z,17.17
2023-01-11T01:39:56.548Z,4.57
2023-01-11T01:42:44.295Z,2.63
2023-01-11T01:45:32.008Z,2.00
2023-01-11T01:48:25.569Z,3.47
2023-01-11T01:51:19.414Z,2.40
2023-01-11T01:54:11.965Z,1.55
2023-01-11T01:57:25.645Z,2.05
2023-01-11T02:00:14.253Z,1.58
2023-01-11T02:03:04.695Z,1.42
2023-01-11T02:05:53.891Z,2.53
2023-01-11T02:08:47.147Z,6.45
2023-01-11T02:11:35.209Z,10.82
2023-01-11T02:14:23.684Z,12.48
2023-01-11T02:17:14.126Z,5.30
2023-01-11T02:20:14.257Z,4.18
2023-01-11T02:23:35.234Z,6.28
2023-01-11T02:26:25.800Z,4.43
2023-01-11T02:29:34.532Z,2.55
2023-01-11T02:32:58.136Z,7.57
2023-01-11T02:36:14.083Z,16.30
2023-01-11T02:39:15.741Z,4.85
2023-01-11T02:42:56.773Z,1.40
2023-01-11T02:45:56.807Z,3.85
2023-01-11T02:49:04.738Z,5.00
2023-01-11T02:52:05.590Z,5.50
2023-01-11T02:54:58.661Z,4.45
2023-01-11T02:57:48.536Z,4.28
2023-01-11T03:00:43.555Z,4.60
2023-01-11T03:03:34.504Z,5.10
2023-01-11T03:06:27.388Z,5.72
2023-01-11T03:09:27.238Z,6.65
2023-01-11T03:12:55.069Z,6.72
2023-01-11T03:16:19.445Z,6.00
2023-01-11T03:19:47.236Z,4.90
2023-01-11T03:22:37.796Z,5.97
2023-01-11T03:25:31.739Z,6.72
2023-01-11T03:28:34.951Z,7.85
2023-01-11T03:31:32.716Z,6.53
2023-01-11T03:34:44.973Z,8.05
2023-01-11T03:38:27.942Z,7.50
2023-01-11T03:44:13.091Z,9.45
2023-01-11T03:47:09.264Z,9.65
2023-01-11T03:50:11.267Z,8.23
2023-01-11T03:53:01.031Z,6.68
2023-01-11T03:55:56.727Z,9.80
2023-01-11T03:58:44.758Z,8.25
2023-01-11T04:01:32.602Z,5.00
2023-01-11T04:04:20.505Z,4.63
2023-01-11T04:07:08.216Z,5.15
2023-01-11T04:09:56.062Z,5.47
2023-01-11T04:12:48.746Z,5.95
2023-01-11T04:15:36.675Z,4.82
2023-01-11T04:18:24.228Z,5.80
2023-01-11T04:21:14.094Z,5.47
2023-01-11T04:24:01.794Z,6.32
2023-01-11T04:26:49.541Z,7.13
2023-01-11T04:29:39.343Z,5.65
2023-01-11T04:32:27.201Z,5.60
2023-01-11T04:35:15.127Z,5.40
2023-01-11T04:38:02.853Z,5.55
2023-01-11T04:41:10.538Z,4.57
2023-01-11T04:43:58.340Z,4.50
2023-01-11T04:46:45.917Z,5.95
2023-01-11T04:49:33.731Z,6.18
2023-01-11T04:52:23.448Z,8.43
2023-01-11T04:55:16.165Z,7.68
2023-01-11T04:58:06.293Z,7.18
2023-01-11T05:00:53.932Z,8.70
2023-01-11T05:03:41.633Z,13.88
2023-01-11T05:06:29.481Z,11.50
2023-01-11T05:09:18.697Z,12.68
2023-01-11T05:12:06.906Z,12.70
2023-01-11T05:14:54.827Z,14.85
2023-01-11T05:17:43.111Z,13.68
2023-01-11T05:20:30.943Z,14.68
2023-01-11T05:23:18.768Z,15.50
2023-01-11T05:26:15.766Z,14.55
2023-01-11T05:29:09.846Z,16.38
2023-01-11T05:31:57.719Z,17.45
2023-01-11T05:34:47.899Z,18.17
2023-01-11T05:37:35.628Z,15.50
2023-01-11T05:40:23.380Z,17.17
2023-01-11T05:43:11.040Z,22.83
2023-01-11T05:46:01.946Z,18.67
2023-01-11T05:48:49.662Z,19.50
2023-01-11T05:51:38.532Z,21.73
2023-01-11T05:54:26.337Z,18.77
2023-01-11T05:57:14.114Z,21.45
2023-01-11T06:00:01.759Z,20.85
2023-01-11T06:02:54.047Z,20.33
2023-01-11T06:05:41.699Z,19.92
2023-01-11T06:08:29.503Z,19.08
2023-01-11T06:11:17.196Z,18.15
2023-01-11T06:14:04.919Z,17.40
2023-01-11T06:16:52.758Z,15.80
2023-01-11T06:19:40.541Z,18.58
2023-01-11T06:22:28.156Z,22.85
2023-01-11T06:25:15.913Z,22.35
2023-01-11T06:28:06.507Z,21.13
2023-01-11T06:30:56.327Z,23.02
2023-01-11T06:33:44.128Z,20.83
2023-01-11T06:36:35.313Z,23.23
2023-01-11T06:42:28.516Z,25.52
2023-01-11T06:45:23.955Z,24.88
2023-01-11T06:48:29.553Z,28.77
2023-01-11T06:51:17.466Z,31.80
2023-01-11T06:54:05.400Z,29.45
2023-01-11T06:56:52.959Z,21.85
2023-01-11T06:59:42.163Z,20.55
2023-01-11T07:02:29.927Z,17.98
2023-01-11T07:05:19.451Z,12.50
2023-01-11T07:08:10.406Z,10.70
2023-01-11T07:10:58.171Z,8.80
2023-01-11T07:13:45.972Z,5.20
2023-01-11T07:16:33.795Z,6.90
2023-01-11T07:19:21.475Z,5.70
2023-01-11T07:22:09.255Z,6.38
2023-01-11T07:24:56.898Z,6.57
2023-01-11T07:27:47.191Z,7.50
2023-01-11T07:30:51.872Z,8.20
2023-01-11T07:33:44.309Z,7.45
2023-01-11T07:36:31.991Z,7.95
2023-01-11T07:39:19.753Z,10.93
2023-01-11T07:42:25.557Z,14.07
2023-01-11T07:45:18.536Z,19.08
2023-01-11T07:48:11.065Z,27.40
2023-01-11T07:50:58.820Z,21.73
2023-01-11T07:53:47.427Z,12.60
2023-01-11T07:56:35.441Z,8.82
2023-01-11T07:59:26.391Z,10.98
2023-01-11T08:02:14.133Z,13.15
2023-01-11T08:05:03.155Z,9.90
2023-01-11T08:07:51.188Z,9.23
2023-01-11T08:10:41.259Z,7.72
2023-01-11T08:13:51.073Z,6.57
2023-01-11T08:16:39.224Z,6.80
2023-01-11T08:19:27.007Z,12.07
2023-01-11T08:22:18.305Z,14.73
2023-01-11T08:25:06.424Z,10.63
2023-01-11T08:27:54.053Z,8.95
2023-01-11T08:30:41.854Z,6.05
2023-01-11T08:33:29.576Z,4.70
2023-01-11T08:36:17.231Z,4.85
2023-01-11T08:39:04.988Z,3.10
2023-01-11T08:41:52.695Z,3.20
2023-01-11T08:44:40.426Z,4.30
2023-01-11T08:47:28.272Z,3.20
2023-01-11T08:50:17.526Z,4.00
2023-01-11T08:53:05.692Z,4.28
2023-01-11T08:55:53.944Z,4.53
2023-01-11T08:58:41.625Z,3.92
2023-01-11T09:01:29.528Z,13.35
2023-01-11T09:04:24.722Z,9.82
2023-01-11T09:07:12.700Z,5.80
2023-01-11T09:10:03.093Z,2.92
2023-01-11T09:12:52.155Z,1.77
2023-01-11T09:15:39.919Z,2.03
2023-01-11T09:18:29.997Z,2.92
2023-01-11T09:21:18.786Z,2.28
2023-01-11T09:24:06.803Z,2.00
2023-01-11T09:26:54.608Z,2.30
2023-01-11T09:29:42.413Z,3.05
2023-01-11T09:32:30.141Z,1.45
2023-01-11T09:35:19.436Z,2.75
2023-01-11T09:38:07.309Z,1.55
2023-01-11T09:41:38.211Z,1.00
2023-01-11T09:44:27.678Z,0.93
2023-01-11T09:47:25.582Z,2.13
2023-01-11T09:50:22.270Z,1.58
2023-01-11T09:53:15.528Z,1.40
2023-01-11T09:56:06.690Z,0.60
2023-01-11T09:59:05.613Z,0.65
2023-01-11T10:02:25.826Z,0.60
2023-01-11T10:05:29.974Z,0.30
2023-01-11T10:18:27.590Z,0.30
2023-01-11T10:19:39.945Z,1.00
2023-01-11T10:22:39.993Z,0.68
2023-01-11T10:25:34.210Z,1.65
2023-01-11T10:28:46.087Z,0.65
2023-01-11T10:31:45.910Z,0.60
2023-01-11T10:35:00.109Z,1.08
2023-01-11T10:37:55.855Z,1.42
2023-01-11T10:41:12.344Z,0.98
2023-01-11T10:44:09.171Z,1.80
2023-01-11T10:47:00.037Z,1.33
2023-01-11T10:50:25.823Z,1.23
2023-01-11T10:53:29.594Z,1.15
2023-01-11T10:56:24.723Z,0.60
2023-01-11T10:59:30.698Z,1.30
2023-01-11T11:02:22.442Z,0.75
2023-01-11T11:05:26.995Z,1.80
2023-01-11T11:08:28.436Z,1.05
2023-01-11T11:11:22.670Z,1.97
2023-01-11T11:14:13.136Z,2.80
2023-01-11T11:17:16.187Z,2.42
2023-01-11T11:20:29.077Z,1.17
2023-01-11T11:23:22.147Z,2.05
2023-01-11T11:26:10.914Z,2.67
2023-01-11T11:29:03.537Z,5.63
2023-01-11T11:31:51.675Z,5.20
2023-01-11T11:34:47.537Z,2.60
2023-01-11T11:37:40.933Z,1.58
2023-01-11T11:40:30.696Z,1.40
2023-01-11T11:43:26.094Z,0.50
2023-01-11T11:46:20.146Z,2.10
2023-01-11T11:49:16.153Z,0.77
2023-01-11T11:52:05.955Z,2.20
2023-01-11T11:54:57.927Z,1.05
2023-01-11T11:57:45.823Z,4.68
2023-01-11T12:00:40.235Z,8.00
2023-01-11T12:03:32.522Z,1.10
2023-01-11T12:06:26.821Z,3.72
2023-01-11T12:09:30.203Z,0.40
2023-01-11T12:12:21.099Z,0.77
2023-01-11T12:15:29.026Z,1.50
2023-01-11T12:18:29.156Z,0.20
2023-01-11T12:21:16.840Z,0.32
2023-01-11T12:24:23.946Z,1.35
2023-01-11T12:27:37.370Z,0.30
2023-01-11T12:30:46.210Z,0.32
2023-01-11T12:33:33.847Z,1.27
2023-01-11T12:36:29.581Z,0.77
2023-01-11T12:39:26.651Z,0.20
2023-01-11T12:42:32.266Z,0.20
2023-01-11T12:45:25.771Z,0.20
2023-01-11T12:48:21.975Z,0.30
2023-01-11T12:51:16.616Z,0.68
2023-01-11T12:54:24.175Z,0.68
2023-01-11T12:57:28.182Z,0.30
2023-01-11T13:00:29.206Z,0.70
2023-01-11T13:03:50.630Z,1.10
2023-01-11T13:07:11.052Z,0.65
2023-01-11T13:10:17.021Z,1.75
2023-01-11T13:13:15.272Z,0.80
2023-01-11T13:16:14.624Z,1.25
2023-01-11T13:19:15.222Z,0.75
2023-01-11T13:22:06.365Z,1.27
2023-01-11T13:24:53.996Z,0.70
2023-01-11T13:27:42.490Z,1.00
2023-01-11T13:30:32.022Z,1.27
2023-01-11T13:33:23.328Z,1.23
2023-01-11T13:36:23.428Z,1.50
2023-01-11T13:39:20.217Z,1.85
2023-01-11T13:42:22.523Z,1.67
2023-01-11T13:45:21.966Z,3.05
2023-01-11T13:48:34.021Z,3.70
2023-01-11T13:51:52.163Z,3.17
2023-01-11T13:54:53.888Z,4.40
2023-01-11T13:58:01.462Z,7.32
2023-01-11T14:00:54.462Z,3.50
2023-01-11T14:03:53.173Z,1.73
2023-01-11T14:06:43.713Z,1.38
2023-01-11T14:10:02.174Z,1.58
2023-01-11T14:13:42.967Z,1.80
2023-01-11T14:17:01.239Z,2.63
2023-01-11T14:19:49.058Z,2.58
2023-01-11T14:22:44.840Z,1.75
2023-01-11T14:25:45.117Z,2.72
2023-01-11T14:29:00.374Z,2.75
2023-01-11T14:32:13.931Z,2.00
2023-01-11T14:35:40.510Z,2.33
2023-01-11T14:38:28.157Z,3.08
2023-01-11T14:41:49.182Z,3.72
2023-01-11T14:44:57.200Z,5.70
2023-01-11T14:47:59.837Z,6.35
2023-01-11T14:51:09.957Z,8.57
2023-01-11T14:54:07.112Z,11.75
2023-01-11T14:56:59.069Z,10.82
2023-01-11T14:59:46.871Z,9.65
2023-01-11T15:02:34.503Z,9.82
2023-01-11T15:05:31.700Z,9.23
2023-01-11T15:08:28.727Z,8.80
2023-01-11T15:11:24.771Z,9.23
2023-01-11T15:14:29.700Z,9.35
2023-01-11T15:17:38.335Z,76.55
2023-01-11T15:20:27.174Z,23.00
2023-01-11T15:23:18.017Z,15.25
2023-01-11T15:26:09.790Z,9.45
2023-01-11T15:29:01.812Z,8.38
2023-01-11T15:32:13.461Z,10.48
2023-01-11T15:35:31.899Z,9.32
2023-01-11T15:38:52.806Z,8.95
2023-01-11T15:42:07.138Z,7.35
2023-01-11T15:44:57.998Z,8.45
2023-01-11T15:48:06.476Z,10.15
2023-01-11T15:51:01.723Z,9.40
2023-01-11T15:54:34.548Z,10.60
2023-01-11T15:57:47.176Z,8.98
2023-01-11T16:00:48.692Z,11.60
2023-01-11T16:04:16.489Z,25.17
2023-01-11T16:07:15.779Z,23.52
2023-01-11T16:10:33.125Z,15.48
2023-01-11T16:13:58.625Z,12.18
2023-01-11T16:16:54.785Z,10.82
2023-01-11T16:19:46.180Z,15.68
2023-01-11T16:22:34.627Z,18.30
2023-01-11T16:25:25.704Z,14.07
2023-01-11T16:28:20.487Z,14.52
2023-01-11T16:31:09.921Z,18.83
2023-01-11T16:34:15.403Z,13.43
2023-01-11T16:37:18.336Z,11.75
2023-01-11T16:40:28.719Z,12.10
2023-01-11T16:43:40.066Z,10.57
2023-01-11T16:46:50.610Z,10.27
2023-01-11T16:49:41.571Z,11.25
2023-01-11T16:52:29.330Z,11.05
2023-01-11T16:55:21.462Z,12.02
2023-01-11T16:58:27.116Z,12.25
2023-01-11T17:01:16.533Z,10.40
2023-01-11T17:04:07.299Z,10.70
2023-01-11T17:07:12.183Z,10.10
2023-01-11T17:10:16.035Z,13.80
2023-01-11T17:13:29.583Z,15.38
2023-01-11T17:16:18.575Z,17.05
2023-01-11T17:19:13.491Z,16.55
2023-01-11T17:22:15.560Z,15.20
2023-01-11T17:25:44.296Z,12.95
2023-01-11T17:28:32.446Z,12.35
2023-01-11T17:31:27.372Z,10.57
2023-01-11T17:34:39.343Z,10.60
2023-01-11T17:37:27.386Z,11.82
2023-01-11T17:40:38.232Z,12.32
2023-01-11T17:43:47.400Z,15.27
2023-01-11T17:46:35.348Z,13.35
2023-01-11T17:49:26.264Z,12.77
2023-01-11T17:52:23.083Z,13.23
2023-01-11T17:55:20.544Z,13.20
2023-01-11T17:58:19.295Z,13.60
2023-01-11T18:01:14.471Z,17.00
2023-01-11T18:04:02.272Z,17.42
2023-01-11T18:07:17.854Z,17.25
2023-01-11T18:10:05.964Z,20.15
2023-01-11T18:12:56.712Z,16.90
2023-01-11T18:15:47.678Z,14.73
2023-01-11T18:18:42.305Z,14.23
2023-01-11T18:21:51.414Z,16.35
2023-01-11T18:24:43.951Z,13.93
2023-01-11T18:27:35.461Z,13.93
2023-01-11T18:30:32.048Z,13.32
2023-01-11T18:33:24.120Z,13.52
2023-01-11T18:36:21.783Z,14.02
2023-01-11T18:39:12.826Z,17.25
2023-01-11T18:42:08.438Z,15.40
2023-01-11T18:45:04.676Z,17.05
2023-01-11T18:47:52.997Z,17.60
2023-01-11T18:50:45.423Z,30.30
2023-01-11T18:53:33.296Z,20.95
2023-01-11T18:56:22.100Z,18.88
2023-01-11T18:59:15.225Z,17.15
2023-01-11T19:02:25.029Z,15.95
2023-01-11T19:05:20.924Z,14.80
2023-01-11T19:08:08.744Z,20.65
2023-01-11T19:10:58.833Z,16.45
2023-01-11T19:13:50.625Z,6.03
2023-01-11T19:16:38.396Z,2.33
2023-01-11T19:19:26.711Z,1.02
2023-01-11T19:22:14.442Z,0.73
2023-01-11T19:25:02.255Z,0.77
2023-01-11T19:27:50.507Z,1.42
2023-01-11T19:30:39.496Z,0.80
2023-01-11T19:33:27.220Z,1.17
2023-01-11T19:36:14.892Z,2.28
2023-01-11T19:39:02.515Z,0.73
2023-01-11T19:41:54.320Z,0.57
2023-01-11T19:44:42.155Z,0.90
2023-01-11T20:27:28.914Z,1.38
2023-01-11T20:30:17.825Z,1.35
2023-01-11T20:33:05.472Z,2.70
2023-01-11T20:35:53.989Z,2.25
2023-01-11T20:38:41.977Z,1.60
2023-01-11T20:41:47.998Z,2.42
2023-01-11T20:44:35.653Z,1.52
2023-01-11T20:47:23.367Z,1.13
2023-01-11T20:50:11.297Z,0.80
2023-01-11T20:53:00.566Z,1.75
2023-01-11T20:55:48.110Z,0.80
2023-01-11T20:58:35.819Z,0.43
2023-01-11T21:01:30.221Z,0.60
2023-01-11T21:04:18.777Z,0.60
2023-01-11T21:07:06.419Z,1.30
2023-01-11T21:09:55.229Z,1.00
2023-01-11T21:12:42.841Z,1.55
2023-01-11T21:15:30.586Z,2.40
2023-01-11T21:18:18.159Z,2.13
2023-01-11T21:21:06.505Z,1.55
2023-01-11T21:23:56.663Z,2.28
2023-01-11T21:26:45.975Z,2.22
2023-01-11T21:29:34.185Z,2.00
2023-01-11T21:32:22.085Z,2.25
2023-01-11T21:35:09.960Z,2.20
2023-01-11T21:37:57.932Z,2.97
2023-01-11T21:40:45.603Z,2.88
2023-01-11T21:43:33.751Z,3.05
2023-01-11T21:46:21.464Z,2.92
2023-01-11T21:49:10.479Z,2.10
2023-01-11T21:51:58.325Z,2.45
2023-01-11T21:54:47.944Z,1.85
2023-01-11T21:57:35.615Z,1.48
2023-01-11T22:00:23.478Z,2.50
2023-01-11T22:03:11.201Z,2.15
2023-01-11T22:06:03.278Z,1.25
2023-01-11T22:08:51.117Z,1.45
2023-01-11T22:11:39.735Z,1.15
2023-01-11T22:14:27.358Z,1.05
2023-01-11T22:17:15.108Z,1.77
2023-01-11T22:20:02.732Z,1.52
2023-01-11T22:22:50.494Z,1.70
2023-01-11T22:25:38.054Z,1.80
2023-01-11T22:28:25.880Z,1.65
2023-01-11T22:31:13.980Z,1.67
2023-01-11T22:34:01.767Z,1.40
2023-01-11T22:36:49.851Z,2.13
2023-01-11T22:39:38.206Z,1.40
2023-01-11T22:42:25.872Z,0.90
2023-01-11T22:45:13.619Z,1.52
2023-01-11T22:48:04.780Z,1.60
2023-01-11T22:50:52.721Z,1.30
2023-01-11T22:53:41.965Z,1.38
2023-01-11T22:56:30.442Z,1.55
2023-01-11T22:59:18.101Z,2.05
2023-01-11T23:02:05.824Z,1.88
2023-01-11T23:04:53.442Z,1.80
2023-01-11T23:07:43.509Z,1.30
2023-01-11T23:10:31.192Z,1.30
2023-01-11T23:13:37.292Z,1.15
2023-01-11T23:16:25.083Z,1.38
2023-01-11T23:19:15.210Z,1.92
2023-01-11T23:22:03.100Z,1.50
2023-01-11T23:24:50.799Z,1.00
2023-01-11T23:27:38.532Z,1.45
2023-01-11T23:30:26.227Z,1.40
2023-01-11T23:33:13.917Z,0.60
2023-01-11T23:36:04.729Z,1.15
2023-01-11T23:38:52.376Z,1.98
2023-01-11T23:41:58.410Z,2.08
2023-01-11T23:44:47.241Z,1.08
2023-01-11T23:47:35.069Z,0.90
2023-01-11T23:50:22.698Z,1.38
2023-01-11T23:53:10.441Z,1.52
2023-01-11T23:55:58.063Z,1.40
2023-01-11T23:58:45.793Z,1.02
